sensor_id;sensor_type;location;lat;lon;timestamp;temperature;humidity
13721;DHT22;6932;51.438;5.470;2023-05-10T00:01:08;19.60;96.80
13721;DHT22;6932;51.438;5.470;2023-05-10T00:03:34;19.60;96.70
13721;DHT22;6932;51.438;5.470;2023-05-10T00:06:00;19.60;96.80
13721;DHT22;6932;51.438;5.470;2023-05-10T00:08:25;19.60;96.80
13721;DHT22;6932;51.438;5.470;2023-05-10T00:10:53;19.60;96.80
13721;DHT22;6932;51.438;5.470;2023-05-10T00:13:18;19.60;96.80
13721;DHT22;6932;51.438;5.470;2023-05-10T00:15:44;19.70;96.80
13721;DHT22;6932;51.438;5.470;2023-05-10T00:18:10;19.60;96.80
13721;DHT22;6932;51.438;5.470;2023-05-10T00:20:36;19.60;96.80
13721;DHT22;6932;51.438;5.470;2023-05-10T00:23:02;19.70;96.80
13721;DHT22;6932;51.438;5.470;2023-05-10T00:25:28;19.70;96.80
13721;DHT22;6932;51.438;5.470;2023-05-10T00:27:53;19.70;96.80
13721;DHT22;6932;51.438;5.470;2023-05-10T00:30:20;19.70;96.80
13721;DHT22;6932;51.438;5.470;2023-05-10T00:32:46;19.70;96.80
13721;DHT22;6932;51.438;5.470;2023-05-10T00:35:13;19.70;96.80
13721;DHT22;6932;51.438;5.470;2023-05-10T00:37:39;19.70;96.80
13721;DHT22;6932;51.438;5.470;2023-05-10T00:40:06;19.70;96.80
13721;DHT22;6932;51.438;5.470;2023-05-10T00:42:32;19.70;96.80
13721;DHT22;6932;51.438;5.470;2023-05-10T00:44:58;19.70;96.80
13721;DHT22;6932;51.438;5.470;2023-05-10T00:47:24;19.70;96.80
13721;DHT22;6932;51.438;5.470;2023-05-10T00:49:50;19.70;96.90
13721;DHT22;6932;51.438;5.470;2023-05-10T00:52:16;19.70;96.90
13721;DHT22;6932;51.438;5.470;2023-05-10T00:54:42;19.70;96.90
13721;DHT22;6932;51.438;5.470;2023-05-10T00:57:08;19.70;97.00
13721;DHT22;6932;51.438;5.470;2023-05-10T00:59:34;19.70;97.00
13721;DHT22;6932;51.438;5.470;2023-05-10T01:02:00;19.70;97.00
13721;DHT22;6932;51.438;5.470;2023-05-10T01:04:27;19.70;97.00
13721;DHT22;6932;51.438;5.470;2023-05-10T01:06:53;19.70;97.00
13721;DHT22;6932;51.438;5.470;2023-05-10T01:09:21;19.70;97.00
13721;DHT22;6932;51.438;5.470;2023-05-10T01:11:47;19.70;97.00
13721;DHT22;6932;51.438;5.470;2023-05-10T01:14:15;19.70;97.00
13721;DHT22;6932;51.438;5.470;2023-05-10T01:16:44;19.70;97.00
13721;DHT22;6932;51.438;5.470;2023-05-10T01:19:19;19.70;97.00
13721;DHT22;6932;51.438;5.470;2023-05-10T01:28:13;19.70;97.10
13721;DHT22;6932;51.438;5.470;2023-05-10T01:33:59;19.70;97.00
13721;DHT22;6932;51.438;5.470;2023-05-10T01:36:56;19.70;97.00
13721;DHT22;6932;51.438;5.470;2023-05-10T01:42:35;19.70;97.10
13721;DHT22;6932;51.438;5.470;2023-05-10T01:47:58;19.70;97.10
13721;DHT22;6932;51.438;5.470;2023-05-10T01:50:31;19.70;97.10
13721;DHT22;6932;51.438;5.470;2023-05-10T01:53:00;19.70;97.40
13721;DHT22;6932;51.438;5.470;2023-05-10T01:55:31;19.70;97.10
13721;DHT22;6932;51.438;5.470;2023-05-10T01:58:07;19.70;97.10
13721;DHT22;6932;51.438;5.470;2023-05-10T02:00:35;19.70;97.10
13721;DHT22;6932;51.438;5.470;2023-05-10T02:03:08;19.70;97.10
13721;DHT22;6932;51.438;5.470;2023-05-10T02:05:36;19.70;97.10
13721;DHT22;6932;51.438;5.470;2023-05-10T02:08:06;19.70;97.10
13721;DHT22;6932;51.438;5.470;2023-05-10T02:10:36;19.70;97.10
13721;DHT22;6932;51.438;5.470;2023-05-10T02:13:05;19.70;97.10
13721;DHT22;6932;51.438;5.470;2023-05-10T02:15:33;19.70;97.10
13721;DHT22;6932;51.438;5.470;2023-05-10T02:18:00;19.70;97.10
13721;DHT22;6932;51.438;5.470;2023-05-10T02:20:29;19.70;97.10
13721;DHT22;6932;51.438;5.470;2023-05-10T02:22:57;19.70;97.00
13721;DHT22;6932;51.438;5.470;2023-05-10T02:25:25;19.70;97.00
13721;DHT22;6932;51.438;5.470;2023-05-10T02:27:55;19.70;96.90
13721;DHT22;6932;51.438;5.470;2023-05-10T02:30:22;19.70;96.90
13721;DHT22;6932;51.438;5.470;2023-05-10T02:32:50;19.70;96.90
13721;DHT22;6932;51.438;5.470;2023-05-10T02:35:17;19.70;96.80
13721;DHT22;6932;51.438;5.470;2023-05-10T02:37:44;19.70;96.70
13721;DHT22;6932;51.438;5.470;2023-05-10T02:40:13;19.70;96.70
13721;DHT22;6932;51.438;5.470;2023-05-10T02:42:42;19.70;96.70
13721;DHT22;6932;51.438;5.470;2023-05-10T02:45:15;19.70;96.60
13721;DHT22;6932;51.438;5.470;2023-05-10T02:47:44;19.70;96.60
13721;DHT22;6932;51.438;5.470;2023-05-10T02:50:10;19.70;96.60
13721;DHT22;6932;51.438;5.470;2023-05-10T02:52:51;19.60;96.90
13721;DHT22;6932;51.438;5.470;2023-05-10T02:55:25;19.60;96.60
13721;DHT22;6932;51.438;5.470;2023-05-10T02:57:57;19.60;96.50
13721;DHT22;6932;51.438;5.470;2023-05-10T03:00:25;19.60;96.50
13721;DHT22;6932;51.438;5.470;2023-05-10T03:02:51;19.60;96.50
13721;DHT22;6932;51.438;5.470;2023-05-10T03:05:18;19.60;96.50
13721;DHT22;6932;51.438;5.470;2023-05-10T03:07:44;19.60;96.50
13721;DHT22;6932;51.438;5.470;2023-05-10T03:10:11;19.60;96.50
13721;DHT22;6932;51.438;5.470;2023-05-10T03:12:55;19.60;96.60
13721;DHT22;6932;51.438;5.470;2023-05-10T03:16:03;19.60;96.60
13721;DHT22;6932;51.438;5.470;2023-05-10T03:18:48;19.60;96.70
13721;DHT22;6932;51.438;5.470;2023-05-10T03:21:22;19.60;96.60
13721;DHT22;6932;51.438;5.470;2023-05-10T03:24:01;19.60;96.60
13721;DHT22;6932;51.438;5.470;2023-05-10T03:26:33;19.60;96.60
13721;DHT22;6932;51.438;5.470;2023-05-10T03:29:00;19.60;96.60
13721;DHT22;6932;51.438;5.470;2023-05-10T03:31:27;19.60;96.70
13721;DHT22;6932;51.438;5.470;2023-05-10T03:33:53;19.60;96.70
13721;DHT22;6932;51.438;5.470;2023-05-10T03:36:19;19.60;96.70
13721;DHT22;6932;51.438;5.470;2023-05-10T03:38:45;19.50;96.70
13721;DHT22;6932;51.438;5.470;2023-05-10T03:41:11;19.50;96.60
13721;DHT22;6932;51.438;5.470;2023-05-10T03:44:08;19.60;96.70
13721;DHT22;6932;51.438;5.470;2023-05-10T03:46:33;19.50;96.60
13721;DHT22;6932;51.438;5.470;2023-05-10T03:48:59;19.60;96.60
13721;DHT22;6932;51.438;5.470;2023-05-10T03:51:25;19.50;96.60
13721;DHT22;6932;51.438;5.470;2023-05-10T03:53:54;19.50;96.60
13721;DHT22;6932;51.438;5.470;2023-05-10T03:56:20;19.50;96.60
13721;DHT22;6932;51.438;5.470;2023-05-10T03:58:47;19.60;96.60
13721;DHT22;6932;51.438;5.470;2023-05-10T04:01:12;19.50;96.60
13721;DHT22;6932;51.438;5.470;2023-05-10T04:03:38;19.50;96.80
13721;DHT22;6932;51.438;5.470;2023-05-10T04:06:04;19.50;96.60
13721;DHT22;6932;51.438;5.470;2023-05-10T04:08:31;19.50;96.60
13721;DHT22;6932;51.438;5.470;2023-05-10T04:11:07;19.50;96.60
13721;DHT22;6932;51.438;5.470;2023-05-10T04:13:35;19.50;96.50
13721;DHT22;6932;51.438;5.470;2023-05-10T04:16:01;19.50;96.80
13721;DHT22;6932;51.438;5.470;2023-05-10T04:18:27;19.50;96.50
13721;DHT22;6932;51.438;5.470;2023-05-10T04:20:52;19.50;96.50
13721;DHT22;6932;51.438;5.470;2023-05-10T04:23:18;19.50;96.50
13721;DHT22;6932;51.438;5.470;2023-05-10T04:25:44;19.50;96.40
13721;DHT22;6932;51.438;5.470;2023-05-10T04:28:10;19.50;96.40
13721;DHT22;6932;51.438;5.470;2023-05-10T04:30:36;19.50;96.40
13721;DHT22;6932;51.438;5.470;2023-05-10T04:33:02;19.50;96.30
13721;DHT22;6932;51.438;5.470;2023-05-10T04:35:28;19.50;96.30
13721;DHT22;6932;51.438;5.470;2023-05-10T04:37:54;19.10;96.60
13721;DHT22;6932;51.438;5.470;2023-05-10T04:40:20;19.10;97.10
13721;DHT22;6932;51.438;5.470;2023-05-10T04:42:46;19.20;97.00
13721;DHT22;6932;51.438;5.470;2023-05-10T04:45:12;19.40;96.80
13721;DHT22;6932;51.438;5.470;2023-05-10T04:47:40;19.50;96.70
13721;DHT22;6932;51.438;5.470;2023-05-10T04:50:06;19.50;96.50
13721;DHT22;6932;51.438;5.470;2023-05-10T04:52:32;19.60;96.40
13721;DHT22;6932;51.438;5.470;2023-05-10T04:54:58;19.60;96.30
13721;DHT22;6932;51.438;5.470;2023-05-10T04:57:24;19.70;96.10
13721;DHT22;6932;51.438;5.470;2023-05-10T04:59:50;19.70;96.00
13721;DHT22;6932;51.438;5.470;2023-05-10T05:02:16;19.70;95.80
13721;DHT22;6932;51.438;5.470;2023-05-10T05:04:42;19.70;95.60
13721;DHT22;6932;51.438;5.470;2023-05-10T05:07:07;19.70;95.60
13721;DHT22;6932;51.438;5.470;2023-05-10T05:09:33;19.70;95.40
13721;DHT22;6932;51.438;5.470;2023-05-10T05:11:59;19.70;95.30
13721;DHT22;6932;51.438;5.470;2023-05-10T05:14:25;19.70;95.20
13721;DHT22;6932;51.438;5.470;2023-05-10T05:16:52;19.80;95.10
13721;DHT22;6932;51.438;5.470;2023-05-10T05:19:18;19.70;95.00
13721;DHT22;6932;51.438;5.470;2023-05-10T05:21:43;19.80;95.00
13721;DHT22;6932;51.438;5.470;2023-05-10T05:24:09;19.80;94.90
13721;DHT22;6932;51.438;5.470;2023-05-10T05:26:36;19.80;94.90
13721;DHT22;6932;51.438;5.470;2023-05-10T05:29:02;19.80;94.90
13721;DHT22;6932;51.438;5.470;2023-05-10T05:31:28;19.80;94.80
13721;DHT22;6932;51.438;5.470;2023-05-10T05:33:54;19.80;94.80
13721;DHT22;6932;51.438;5.470;2023-05-10T05:36:20;19.80;94.70
13721;DHT22;6932;51.438;5.470;2023-05-10T05:38:46;19.90;94.60
13721;DHT22;6932;51.438;5.470;2023-05-10T05:41:12;19.90;94.60
13721;DHT22;6932;51.438;5.470;2023-05-10T05:43:38;19.90;94.50
13721;DHT22;6932;51.438;5.470;2023-05-10T05:46:04;19.90;94.40
13721;DHT22;6932;51.438;5.470;2023-05-10T05:48:30;19.90;94.30
13721;DHT22;6932;51.438;5.470;2023-05-10T05:50:57;19.90;94.30
13721;DHT22;6932;51.438;5.470;2023-05-10T05:53:23;19.90;94.30
13721;DHT22;6932;51.438;5.470;2023-05-10T05:55:56;19.90;94.20
13721;DHT22;6932;51.438;5.470;2023-05-10T05:58:23;19.90;94.10
13721;DHT22;6932;51.438;5.470;2023-05-10T06:00:51;19.90;94.10
13721;DHT22;6932;51.438;5.470;2023-05-10T06:03:17;19.90;94.00
13721;DHT22;6932;51.438;5.470;2023-05-10T06:05:43;19.90;94.00
13721;DHT22;6932;51.438;5.470;2023-05-10T06:08:09;20.00;94.10
13721;DHT22;6932;51.438;5.470;2023-05-10T06:10:36;19.90;94.10
13721;DHT22;6932;51.438;5.470;2023-05-10T06:13:02;20.00;94.10
13721;DHT22;6932;51.438;5.470;2023-05-10T06:15:28;20.00;94.10
13721;DHT22;6932;51.438;5.470;2023-05-10T06:17:53;19.90;94.10
13721;DHT22;6932;51.438;5.470;2023-05-10T06:20:19;19.90;94.10
13721;DHT22;6932;51.438;5.470;2023-05-10T06:22:45;20.00;94.10
13721;DHT22;6932;51.438;5.470;2023-05-10T06:25:11;20.00;94.10
13721;DHT22;6932;51.438;5.470;2023-05-10T06:27:37;20.00;94.10
13721;DHT22;6932;51.438;5.470;2023-05-10T06:30:03;20.00;94.10
13721;DHT22;6932;51.438;5.470;2023-05-10T06:32:30;20.00;94.00
13721;DHT22;6932;51.438;5.470;2023-05-10T06:34:56;20.00;94.00
13721;DHT22;6932;51.438;5.470;2023-05-10T06:37:21;20.00;94.00
13721;DHT22;6932;51.438;5.470;2023-05-10T06:39:47;20.00;94.00
13721;DHT22;6932;51.438;5.470;2023-05-10T06:42:13;20.00;94.00
13721;DHT22;6932;51.438;5.470;2023-05-10T06:44:38;20.00;94.00
13721;DHT22;6932;51.438;5.470;2023-05-10T06:47:04;20.10;94.10
13721;DHT22;6932;51.438;5.470;2023-05-10T06:49:30;20.10;94.10
13721;DHT22;6932;51.438;5.470;2023-05-10T06:51:56;20.10;94.10
13721;DHT22;6932;51.438;5.470;2023-05-10T06:54:22;20.00;94.10
13721;DHT22;6932;51.438;5.470;2023-05-10T06:56:48;20.10;94.10
13721;DHT22;6932;51.438;5.470;2023-05-10T06:59:14;20.10;94.50
13721;DHT22;6932;51.438;5.470;2023-05-10T07:01:41;20.10;94.20
13721;DHT22;6932;51.438;5.470;2023-05-10T07:04:08;20.20;94.20
13721;DHT22;6932;51.438;5.470;2023-05-10T07:06:34;20.20;94.20
13721;DHT22;6932;51.438;5.470;2023-05-10T07:09:00;20.20;94.10
13721;DHT22;6932;51.438;5.470;2023-05-10T07:11:26;20.20;94.10
13721;DHT22;6932;51.438;5.470;2023-05-10T07:13:52;20.30;94.00
13721;DHT22;6932;51.438;5.470;2023-05-10T07:16:18;20.30;94.10
13721;DHT22;6932;51.438;5.470;2023-05-10T07:18:44;20.30;93.80
13721;DHT22;6932;51.438;5.470;2023-05-10T07:21:09;20.30;93.80
13721;DHT22;6932;51.438;5.470;2023-05-10T07:23:35;20.30;93.80
13721;DHT22;6932;51.438;5.470;2023-05-10T07:33:23;20.30;93.70
13721;DHT22;6932;51.438;5.470;2023-05-10T07:35:49;20.40;93.60
13721;DHT22;6932;51.438;5.470;2023-05-10T07:38:15;20.40;93.60
13721;DHT22;6932;51.438;5.470;2023-05-10T07:40:42;20.40;93.60
13721;DHT22;6932;51.438;5.470;2023-05-10T07:43:08;20.40;93.50
13721;DHT22;6932;51.438;5.470;2023-05-10T07:45:34;20.40;93.50
13721;DHT22;6932;51.438;5.470;2023-05-10T07:47:59;20.40;93.50
13721;DHT22;6932;51.438;5.470;2023-05-10T07:50:25;20.30;93.40
13721;DHT22;6932;51.438;5.470;2023-05-10T07:52:51;20.40;93.40
13721;DHT22;6932;51.438;5.470;2023-05-10T07:55:18;20.40;93.30
13721;DHT22;6932;51.438;5.470;2023-05-10T07:57:44;20.40;93.30
13721;DHT22;6932;51.438;5.470;2023-05-10T08:00:17;20.40;93.20
13721;DHT22;6932;51.438;5.470;2023-05-10T08:02:44;20.30;93.10
13721;DHT22;6932;51.438;5.470;2023-05-10T08:05:10;20.40;93.10
13721;DHT22;6932;51.438;5.470;2023-05-10T08:10:57;20.30;93.10
13721;DHT22;6932;51.438;5.470;2023-05-10T08:13:23;20.40;93.00
13721;DHT22;6932;51.438;5.470;2023-05-10T08:15:48;20.40;93.00
13721;DHT22;6932;51.438;5.470;2023-05-10T08:18:15;20.30;93.00
13721;DHT22;6932;51.438;5.470;2023-05-10T08:20:41;20.30;93.00
13721;DHT22;6932;51.438;5.470;2023-05-10T08:23:07;20.30;92.90
13721;DHT22;6932;51.438;5.470;2023-05-10T08:25:32;20.40;92.80
13721;DHT22;6932;51.438;5.470;2023-05-10T08:31:39;20.30;92.70
13721;DHT22;6932;51.438;5.470;2023-05-10T08:34:05;20.40;92.70
13721;DHT22;6932;51.438;5.470;2023-05-10T08:36:31;20.40;92.70
13721;DHT22;6932;51.438;5.470;2023-05-10T08:38:57;20.40;92.60
13721;DHT22;6932;51.438;5.470;2023-05-10T08:41:24;20.30;92.60
13721;DHT22;6932;51.438;5.470;2023-05-10T08:43:51;20.40;92.60
13721;DHT22;6932;51.438;5.470;2023-05-10T08:46:20;20.40;92.70
13721;DHT22;6932;51.438;5.470;2023-05-10T08:48:48;20.40;92.70
13721;DHT22;6932;51.438;5.470;2023-05-10T08:51:18;20.40;92.70
13721;DHT22;6932;51.438;5.470;2023-05-10T08:53:45;20.40;92.70
13721;DHT22;6932;51.438;5.470;2023-05-10T08:56:11;20.40;92.60
13721;DHT22;6932;51.438;5.470;2023-05-10T08:58:38;20.50;92.60
13721;DHT22;6932;51.438;5.470;2023-05-10T09:01:05;20.50;92.40
13721;DHT22;6932;51.438;5.470;2023-05-10T09:03:31;20.50;92.20
13721;DHT22;6932;51.438;5.470;2023-05-10T09:05:57;20.50;92.00
13721;DHT22;6932;51.438;5.470;2023-05-10T09:08:24;20.60;91.90
13721;DHT22;6932;51.438;5.470;2023-05-10T09:10:51;20.60;91.80
13721;DHT22;6932;51.438;5.470;2023-05-10T09:13:18;20.30;91.60
13721;DHT22;6932;51.438;5.470;2023-05-10T09:15:45;20.40;91.70
13721;DHT22;6932;51.438;5.470;2023-05-10T09:18:12;20.50;91.60
13721;DHT22;6932;51.438;5.470;2023-05-10T09:20:38;20.60;91.70
13721;DHT22;6932;51.438;5.470;2023-05-10T09:23:03;20.60;91.50
13721;DHT22;6932;51.438;5.470;2023-05-10T09:25:30;20.70;91.50
13721;DHT22;6932;51.438;5.470;2023-05-10T09:27:58;20.70;91.60
13721;DHT22;6932;51.438;5.470;2023-05-10T09:30:25;20.70;91.50
13721;DHT22;6932;51.438;5.470;2023-05-10T09:32:56;20.70;91.50
13721;DHT22;6932;51.438;5.470;2023-05-10T09:35:25;20.80;91.60
13721;DHT22;6932;51.438;5.470;2023-05-10T09:37:54;20.80;91.50
13721;DHT22;6932;51.438;5.470;2023-05-10T09:40:23;20.80;91.50
13721;DHT22;6932;51.438;5.470;2023-05-10T09:43:09;20.80;91.50
13721;DHT22;6932;51.438;5.470;2023-05-10T09:45:36;20.80;91.50
13721;DHT22;6932;51.438;5.470;2023-05-10T09:48:02;20.90;91.50
13721;DHT22;6932;51.438;5.470;2023-05-10T09:53:48;20.90;91.50
13721;DHT22;6932;51.438;5.470;2023-05-10T09:56:34;21.00;91.40
13721;DHT22;6932;51.438;5.470;2023-05-10T09:59:04;21.00;91.40
13721;DHT22;6932;51.438;5.470;2023-05-10T10:12:44;21.00;91.50
13721;DHT22;6932;51.438;5.470;2023-05-10T10:15:10;21.10;91.50
13721;DHT22;6932;51.438;5.470;2023-05-10T10:17:36;21.10;91.60
13721;DHT22;6932;51.438;5.470;2023-05-10T10:20:06;21.10;91.60
13721;DHT22;6932;51.438;5.470;2023-05-10T10:22:32;21.10;91.40
13721;DHT22;6932;51.438;5.470;2023-05-10T10:24:59;21.10;91.30
13721;DHT22;6932;51.438;5.470;2023-05-10T10:27:36;21.10;91.10
13721;DHT22;6932;51.438;5.470;2023-05-10T10:47:42;21.40;90.40
13721;DHT22;6932;51.438;5.470;2023-05-10T10:50:08;21.50;90.00
13721;DHT22;6932;51.438;5.470;2023-05-10T10:52:45;21.60;90.00
13721;DHT22;6932;51.438;5.470;2023-05-10T10:55:12;21.50;90.00
13721;DHT22;6932;51.438;5.470;2023-05-10T10:57:50;21.60;90.00
13721;DHT22;6932;51.438;5.470;2023-05-10T11:00:19;21.60;89.80
13721;DHT22;6932;51.438;5.470;2023-05-10T11:22:52;21.70;89.90
13721;DHT22;6932;51.438;5.470;2023-05-10T11:25:18;21.70;89.40
13721;DHT22;6932;51.438;5.470;2023-05-10T11:27:45;21.70;89.40
13721;DHT22;6932;51.438;5.470;2023-05-10T11:30:14;21.70;89.40
13721;DHT22;6932;51.438;5.470;2023-05-10T11:32:40;21.70;89.60
13721;DHT22;6932;51.438;5.470;2023-05-10T11:35:10;21.80;89.70
13721;DHT22;6932;51.438;5.470;2023-05-10T11:37:39;21.80;89.60
13721;DHT22;6932;51.438;5.470;2023-05-10T11:40:09;21.90;89.50
13721;DHT22;6932;51.438;5.470;2023-05-10T12:06:04;22.20;88.00
13721;DHT22;6932;51.438;5.470;2023-05-10T12:08:30;22.30;87.50
13721;DHT22;6932;51.438;5.470;2023-05-10T12:11:16;22.20;88.20
13721;DHT22;6932;51.438;5.470;2023-05-10T12:13:43;22.20;87.90
13721;DHT22;6932;51.438;5.470;2023-05-10T12:16:18;22.30;88.00
13721;DHT22;6932;51.438;5.470;2023-05-10T12:18:48;22.40;88.20
13721;DHT22;6932;51.438;5.470;2023-05-10T12:36:10;22.60;88.70
13721;DHT22;6932;51.438;5.470;2023-05-10T12:38:42;22.50;88.80
13721;DHT22;6932;51.438;5.470;2023-05-10T12:41:10;22.60;88.00
13721;DHT22;6932;51.438;5.470;2023-05-10T12:43:38;22.50;86.90
13721;DHT22;6932;51.438;5.470;2023-05-10T12:48:37;22.50;84.30
13721;DHT22;6932;51.438;5.470;2023-05-10T12:51:05;22.40;84.20
13721;DHT22;6932;51.438;5.470;2023-05-10T12:53:35;22.40;84.30
13721;DHT22;6932;51.438;5.470;2023-05-10T12:56:01;22.30;84.40
13721;DHT22;6932;51.438;5.470;2023-05-10T12:58:27;22.30;84.50
13721;DHT22;6932;51.438;5.470;2023-05-10T13:00:53;22.20;84.60
13721;DHT22;6932;51.438;5.470;2023-05-10T13:03:21;22.20;85.00
13721;DHT22;6932;51.438;5.470;2023-05-10T13:05:47;22.20;85.20
13721;DHT22;6932;51.438;5.470;2023-05-10T13:08:13;22.10;85.10
13721;DHT22;6932;51.438;5.470;2023-05-10T13:10:40;22.10;85.50
13721;DHT22;6932;51.438;5.470;2023-05-10T13:13:06;22.10;85.70
13721;DHT22;6932;51.438;5.470;2023-05-10T13:15:45;22.00;85.80
13721;DHT22;6932;51.438;5.470;2023-05-10T13:18:10;21.90;86.10
13721;DHT22;6932;51.438;5.470;2023-05-10T13:20:36;21.90;86.70
13721;DHT22;6932;51.438;5.470;2023-05-10T13:23:02;21.90;87.20
13721;DHT22;6932;51.438;5.470;2023-05-10T13:25:28;21.80;87.50
13721;DHT22;6932;51.438;5.470;2023-05-10T13:27:54;21.80;87.60
13721;DHT22;6932;51.438;5.470;2023-05-10T13:30:19;21.80;88.00
13721;DHT22;6932;51.438;5.470;2023-05-10T13:32:45;21.80;88.30
13721;DHT22;6932;51.438;5.470;2023-05-10T13:35:11;21.80;88.50
13721;DHT22;6932;51.438;5.470;2023-05-10T13:37:37;21.80;89.00
13721;DHT22;6932;51.438;5.470;2023-05-10T13:40:03;21.80;89.70
13721;DHT22;6932;51.438;5.470;2023-05-10T13:42:30;21.80;90.10
13721;DHT22;6932;51.438;5.470;2023-05-10T13:44:57;21.80;90.10
13721;DHT22;6932;51.438;5.470;2023-05-10T13:47:22;21.70;90.20
13721;DHT22;6932;51.438;5.470;2023-05-10T13:49:48;21.70;90.30
13721;DHT22;6932;51.438;5.470;2023-05-10T13:52:14;21.70;90.30
13721;DHT22;6932;51.438;5.470;2023-05-10T13:54:39;21.70;90.50
13721;DHT22;6932;51.438;5.470;2023-05-10T13:57:05;21.60;90.60
13721;DHT22;6932;51.438;5.470;2023-05-10T13:59:32;21.60;90.80
13721;DHT22;6932;51.438;5.470;2023-05-10T15:39:24;20.20;94.00
13721;DHT22;6932;51.438;5.470;2023-05-10T15:41:50;20.20;94.10
13721;DHT22;6932;51.438;5.470;2023-05-10T15:44:16;20.20;94.20
13721;DHT22;6932;51.438;5.470;2023-05-10T15:46:42;20.10;94.20
13721;DHT22;6932;51.438;5.470;2023-05-10T15:49:07;20.10;94.20
13721;DHT22;6932;51.438;5.470;2023-05-10T15:51:33;20.10;94.10
13721;DHT22;6932;51.438;5.470;2023-05-10T15:53:59;20.20;94.20
13721;DHT22;6932;51.438;5.470;2023-05-10T16:00:09;20.10;94.10
13721;DHT22;6932;51.438;5.470;2023-05-10T16:02:36;20.20;94.10
13721;DHT22;6932;51.438;5.470;2023-05-10T16:05:03;20.20;94.10
13721;DHT22;6932;51.438;5.470;2023-05-10T16:07:29;20.20;94.10
13721;DHT22;6932;51.438;5.470;2023-05-10T16:09:54;20.20;94.20
13721;DHT22;6932;51.438;5.470;2023-05-10T16:12:20;20.10;94.30
13721;DHT22;6932;51.438;5.470;2023-05-10T16:18:27;20.10;94.40
13721;DHT22;6932;51.438;5.470;2023-05-10T16:20:53;20.20;94.40
13721;DHT22;6932;51.438;5.470;2023-05-10T16:23:19;20.10;94.40
13721;DHT22;6932;51.438;5.470;2023-05-10T16:25:45;20.10;94.40
13721;DHT22;6932;51.438;5.470;2023-05-10T16:28:11;20.10;94.40
13721;DHT22;6932;51.438;5.470;2023-05-10T16:30:37;20.10;94.80
13721;DHT22;6932;51.438;5.470;2023-05-10T16:33:02;20.10;94.50
13721;DHT22;6932;51.438;5.470;2023-05-10T16:35:28;20.10;94.60
13721;DHT22;6932;51.438;5.470;2023-05-10T16:37:54;20.10;94.50
13721;DHT22;6932;51.438;5.470;2023-05-10T16:40:21;20.00;94.50
13721;DHT22;6932;51.438;5.470;2023-05-10T16:42:48;20.10;94.50
13721;DHT22;6932;51.438;5.470;2023-05-10T16:45:14;20.00;94.40
13721;DHT22;6932;51.438;5.470;2023-05-10T16:47:40;20.00;94.30
13721;DHT22;6932;51.438;5.470;2023-05-10T16:50:07;20.00;94.20
13721;DHT22;6932;51.438;5.470;2023-05-10T16:52:34;20.00;94.10
13721;DHT22;6932;51.438;5.470;2023-05-10T16:55:01;20.00;94.10
13721;DHT22;6932;51.438;5.470;2023-05-10T16:57:27;20.00;94.20
13721;DHT22;6932;51.438;5.470;2023-05-10T16:59:53;20.00;94.30
13721;DHT22;6932;51.438;5.470;2023-05-10T17:02:22;20.00;94.30
13721;DHT22;6932;51.438;5.470;2023-05-10T17:04:49;20.00;94.40
13721;DHT22;6932;51.438;5.470;2023-05-10T17:07:17;20.00;94.30
13721;DHT22;6932;51.438;5.470;2023-05-10T17:09:43;20.00;94.30
13721;DHT22;6932;51.438;5.470;2023-05-10T17:15:25;20.00;94.50
13721;DHT22;6932;51.438;5.470;2023-05-10T17:17:51;20.00;94.30
13721;DHT22;6932;51.438;5.470;2023-05-10T17:20:16;20.00;94.30
13721;DHT22;6932;51.438;5.470;2023-05-10T17:22:42;20.00;94.30
13721;DHT22;6932;51.438;5.470;2023-05-10T17:25:08;20.10;94.30
13721;DHT22;6932;51.438;5.470;2023-05-10T17:27:34;20.10;94.20
13721;DHT22;6932;51.438;5.470;2023-05-10T17:30:00;20.10;94.10
13721;DHT22;6932;51.438;5.470;2023-05-10T17:32:26;20.10;94.10
13721;DHT22;6932;51.438;5.470;2023-05-10T17:38:32;20.10;94.10
13721;DHT22;6932;51.438;5.470;2023-05-10T17:40:58;20.10;94.10
13721;DHT22;6932;51.438;5.470;2023-05-10T17:43:24;20.10;94.10
13721;DHT22;6932;51.438;5.470;2023-05-10T17:45:50;20.10;94.20
13721;DHT22;6932;51.438;5.470;2023-05-10T17:48:16;20.00;94.20
13721;DHT22;6932;51.438;5.470;2023-05-10T17:50:42;20.00;94.30
13721;DHT22;6932;51.438;5.470;2023-05-10T17:53:08;20.00;94.40
13721;DHT22;6932;51.438;5.470;2023-05-10T17:55:34;20.00;94.50
13721;DHT22;6932;51.438;5.470;2023-05-10T17:58:17;20.00;94.50
13721;DHT22;6932;51.438;5.470;2023-05-10T18:00:43;20.00;94.50
13721;DHT22;6932;51.438;5.470;2023-05-10T18:03:10;20.00;94.50
13721;DHT22;6932;51.438;5.470;2023-05-10T18:05:37;20.00;94.50
13721;DHT22;6932;51.438;5.470;2023-05-10T18:08:04;20.00;94.50
13721;DHT22;6932;51.438;5.470;2023-05-10T18:10:30;20.00;94.60
13721;DHT22;6932;51.438;5.470;2023-05-10T18:12:56;20.00;94.60
13721;DHT22;6932;51.438;5.470;2023-05-10T18:15:26;20.00;94.60
13721;DHT22;6932;51.438;5.470;2023-05-10T18:17:52;20.00;94.60
13721;DHT22;6932;51.438;5.470;2023-05-10T18:20:18;19.90;94.50
13721;DHT22;6932;51.438;5.470;2023-05-10T18:22:44;19.90;94.50
13721;DHT22;6932;51.438;5.470;2023-05-10T18:25:09;19.90;94.60
13721;DHT22;6932;51.438;5.470;2023-05-10T18:27:35;19.90;94.70
13721;DHT22;6932;51.438;5.470;2023-05-10T18:30:01;19.90;94.70
13721;DHT22;6932;51.438;5.470;2023-05-10T18:32:27;19.90;94.70
13721;DHT22;6932;51.438;5.470;2023-05-10T18:34:52;19.90;94.80
13721;DHT22;6932;51.438;5.470;2023-05-10T18:37:18;19.90;94.80
13721;DHT22;6932;51.438;5.470;2023-05-10T18:39:44;19.90;94.90
13721;DHT22;6932;51.438;5.470;2023-05-10T18:42:10;19.90;94.90
13721;DHT22;6932;51.438;5.470;2023-05-10T18:44:36;19.90;95.00
13721;DHT22;6932;51.438;5.470;2023-05-10T18:47:02;19.90;95.00
13721;DHT22;6932;51.438;5.470;2023-05-10T18:49:27;19.90;95.00
13721;DHT22;6932;51.438;5.470;2023-05-10T18:51:53;19.90;94.90
13721;DHT22;6932;51.438;5.470;2023-05-10T18:54:19;19.80;94.80
13721;DHT22;6932;51.438;5.470;2023-05-10T18:56:45;19.80;94.80
13721;DHT22;6932;51.438;5.470;2023-05-10T18:59:11;19.80;94.80
13721;DHT22;6932;51.438;5.470;2023-05-10T19:05:18;19.70;94.90
13721;DHT22;6932;51.438;5.470;2023-05-10T19:07:44;19.70;94.90
13721;DHT22;6932;51.438;5.470;2023-05-10T19:10:11;19.70;95.00
13721;DHT22;6932;51.438;5.470;2023-05-10T19:12:37;19.70;95.00
13721;DHT22;6932;51.438;5.470;2023-05-10T19:15:06;19.70;95.00
13721;DHT22;6932;51.438;5.470;2023-05-10T19:17:32;19.60;95.00
13721;DHT22;6932;51.438;5.470;2023-05-10T19:19:58;19.70;95.00
13721;DHT22;6932;51.438;5.470;2023-05-10T19:22:24;19.70;95.10
13721;DHT22;6932;51.438;5.470;2023-05-10T19:24:50;19.60;95.00
13721;DHT22;6932;51.438;5.470;2023-05-10T19:27:15;19.60;95.10
13721;DHT22;6932;51.438;5.470;2023-05-10T19:29:41;19.60;95.10
13721;DHT22;6932;51.438;5.470;2023-05-10T19:32:07;19.60;95.10
13721;DHT22;6932;51.438;5.470;2023-05-10T19:34:33;19.60;95.20
13721;DHT22;6932;51.438;5.470;2023-05-10T19:44:26;19.60;95.30
13721;DHT22;6932;51.438;5.470;2023-05-10T19:46:53;19.60;95.30
13721;DHT22;6932;51.438;5.470;2023-05-10T19:49:18;19.60;95.40
13721;DHT22;6932;51.438;5.470;2023-05-10T19:51:44;19.60;95.50